sensor_id;sensor_type;location;lat;lon;timestamp;temperature;humidity
72602;DHT22;60644;55.858;37.390;2023-03-02T00:02:01;-2.05;68.78
72602;DHT22;60644;55.858;37.390;2023-03-02T00:04:45;-2.04;68.82
72602;DHT22;60644;55.858;37.390;2023-03-02T00:07:20;-2.03;68.42
72602;DHT22;60644;55.858;37.390;2023-03-02T00:09:47;-2.04;68.66
72602;DHT22;60644;55.858;37.390;2023-03-02T00:12:13;-2.06;68.41
72602;DHT22;60644;55.858;37.390;2023-03-02T00:14:40;-2.05;68.59
72602;DHT22;60644;55.858;37.390;2023-03-02T00:17:06;-2.02;68.49
72602;DHT22;60644;55.858;37.390;2023-03-02T00:19:35;-2.01;68.62
72602;DHT22;60644;55.858;37.390;2023-03-02T00:22:01;-2.04;68.75
72602;DHT22;60644;55.858;37.390;2023-03-02T00:24:27;-2.02;68.10
72602;DHT22;60644;55.858;37.390;2023-03-02T00:26:53;-2.07;68.51
72602;DHT22;60644;55.858;37.390;2023-03-02T00:29:19;-2.08;67.88
72602;DHT22;60644;55.858;37.390;2023-03-02T00:31:45;-2.10;67.99
72602;DHT22;60644;55.858;37.390;2023-03-02T00:34:11;-2.23;68.30
72602;DHT22;60644;55.858;37.390;2023-03-02T00:36:37;-2.21;67.65
72602;DHT22;60644;55.858;37.390;2023-03-02T00:39:03;-2.24;67.85
72602;DHT22;60644;55.858;37.390;2023-03-02T00:41:31;-2.22;67.20
72602;DHT22;60644;55.858;37.390;2023-03-02T00:43:57;-2.29;67.30
72602;DHT22;60644;55.858;37.390;2023-03-02T00:46:23;-2.36;67.26
72602;DHT22;60644;55.858;37.390;2023-03-02T00:48:50;-2.41;67.75
72602;DHT22;60644;55.858;37.390;2023-03-02T00:51:17;-2.37;67.86
72602;DHT22;60644;55.858;37.390;2023-03-02T00:53:43;-2.43;68.05
72602;DHT22;60644;55.858;37.390;2023-03-02T00:56:10;-2.43;67.87
72602;DHT22;60644;55.858;37.390;2023-03-02T00:58:40;-2.42;67.49
72602;DHT22;60644;55.858;37.390;2023-03-02T01:01:08;-2.52;67.33
72602;DHT22;60644;55.858;37.390;2023-03-02T01:03:37;-2.50;67.10
72602;DHT22;60644;55.858;37.390;2023-03-02T01:06:04;-2.52;66.84
72602;DHT22;60644;55.858;37.390;2023-03-02T01:08:30;-2.44;66.57
72602;DHT22;60644;55.858;37.390;2023-03-02T01:10:56;-2.38;66.36
72602;DHT22;60644;55.858;37.390;2023-03-02T01:13:27;-2.31;66.10
72602;DHT22;60644;55.858;37.390;2023-03-02T01:16:02;-2.42;66.48
72602;DHT22;60644;55.858;37.390;2023-03-02T01:18:28;-2.43;66.66
72602;DHT22;60644;55.858;37.390;2023-03-02T01:21:02;-2.35;66.65
72602;DHT22;60644;55.858;37.390;2023-03-02T01:23:28;-2.37;66.64
72602;DHT22;60644;55.858;37.390;2023-03-02T01:25:54;-2.36;66.56
72602;DHT22;60644;55.858;37.390;2023-03-02T01:28:19;-2.36;66.42
72602;DHT22;60644;55.858;37.390;2023-03-02T01:30:46;-2.32;66.25
72602;DHT22;60644;55.858;37.390;2023-03-02T01:33:12;-2.29;66.05
72602;DHT22;60644;55.858;37.390;2023-03-02T01:35:38;-2.33;66.18
72602;DHT22;60644;55.858;37.390;2023-03-02T01:38:04;-2.31;66.07
72602;DHT22;60644;55.858;37.390;2023-03-02T01:40:30;-2.32;65.95
72602;DHT22;60644;55.858;37.390;2023-03-02T01:42:57;-2.36;65.88
72602;DHT22;60644;55.858;37.390;2023-03-02T01:45:49;-2.32;65.92
72602;DHT22;60644;55.858;37.390;2023-03-02T01:48:32;-2.34;65.95
72602;DHT22;60644;55.858;37.390;2023-03-02T01:50:59;-2.33;65.92
72602;DHT22;60644;55.858;37.390;2023-03-02T01:53:29;-2.36;66.03
72602;DHT22;60644;55.858;37.390;2023-03-02T01:55:56;-2.33;65.88
72602;DHT22;60644;55.858;37.390;2023-03-02T01:58:24;-2.37;65.72
72602;DHT22;60644;55.858;37.390;2023-03-02T02:00:51;-2.35;65.81
72602;DHT22;60644;55.858;37.390;2023-03-02T02:03:22;-2.33;65.59
72602;DHT22;60644;55.858;37.390;2023-03-02T02:06:10;-2.28;65.48
72602;DHT22;60644;55.858;37.390;2023-03-02T02:08:43;-2.30;65.40
72602;DHT22;60644;55.858;37.390;2023-03-02T02:11:09;-2.28;65.33
72602;DHT22;60644;55.858;37.390;2023-03-02T02:13:35;-2.37;65.37
72602;DHT22;60644;55.858;37.390;2023-03-02T02:16:01;-2.48;65.44
72602;DHT22;60644;55.858;37.390;2023-03-02T02:18:27;-2.41;65.40
72602;DHT22;60644;55.858;37.390;2023-03-02T02:20:54;-2.38;65.19
72602;DHT22;60644;55.858;37.390;2023-03-02T02:25:54;-2.32;65.07
72602;DHT22;60644;55.858;37.390;2023-03-02T02:28:46;-2.31;64.84
72602;DHT22;60644;55.858;37.390;2023-03-02T02:31:19;-2.34;64.81
72602;DHT22;60644;55.858;37.390;2023-03-02T02:33:52;-2.34;64.74
72602;DHT22;60644;55.858;37.390;2023-03-02T02:36:23;-2.37;64.70
72602;DHT22;60644;55.858;37.390;2023-03-02T02:38:53;-2.50;65.09
72602;DHT22;60644;55.858;37.390;2023-03-02T02:41:25;-2.52;65.01
72602;DHT22;60644;55.858;37.390;2023-03-02T02:43:53;-2.50;64.90
72602;DHT22;60644;55.858;37.390;2023-03-02T02:46:20;-2.46;64.90
72602;DHT22;60644;55.858;37.390;2023-03-02T02:48:46;-2.45;64.82
72602;DHT22;60644;55.858;37.390;2023-03-02T02:51:16;-2.48;64.63
72602;DHT22;60644;55.858;37.390;2023-03-02T02:56:16;-2.63;64.78
72602;DHT22;60644;55.858;37.390;2023-03-02T02:58:49;-2.76;65.03
72602;DHT22;60644;55.858;37.390;2023-03-02T03:01:19;-2.76;65.05
72602;DHT22;60644;55.858;37.390;2023-03-02T03:03:59;-2.81;65.14
72602;DHT22;60644;55.858;37.390;2023-03-02T03:06:29;-2.81;64.87
72602;DHT22;60644;55.858;37.390;2023-03-02T03:09:05;-2.82;64.67
72602;DHT22;60644;55.858;37.390;2023-03-02T03:11:41;-2.79;64.34
72602;DHT22;60644;55.858;37.390;2023-03-02T03:14:11;-2.80;64.14
72602;DHT22;60644;55.858;37.390;2023-03-02T03:16:39;-2.77;63.96
72602;DHT22;60644;55.858;37.390;2023-03-02T03:19:24;-2.74;63.89
72602;DHT22;60644;55.858;37.390;2023-03-02T03:21:54;-2.68;64.08
72602;DHT22;60644;55.858;37.390;2023-03-02T03:24:23;-2.62;63.78
72602;DHT22;60644;55.858;37.390;2023-03-02T03:26:51;-2.64;63.20
72602;DHT22;60644;55.858;37.390;2023-03-02T03:29:21;-2.66;63.31
72602;DHT22;60644;55.858;37.390;2023-03-02T03:31:52;-2.61;63.62
72602;DHT22;60644;55.858;37.390;2023-03-02T03:34:19;-2.52;63.63
72602;DHT22;60644;55.858;37.390;2023-03-02T03:36:45;-2.49;63.39
72602;DHT22;60644;55.858;37.390;2023-03-02T03:39:13;-2.57;63.22
72602;DHT22;60644;55.858;37.390;2023-03-02T03:41:40;-2.53;63.02
72602;DHT22;60644;55.858;37.390;2023-03-02T03:44:07;-2.54;63.05
72602;DHT22;60644;55.858;37.390;2023-03-02T03:46:35;-2.58;62.82
72602;DHT22;60644;55.858;37.390;2023-03-02T03:49:01;-2.65;62.23
72602;DHT22;60644;55.858;37.390;2023-03-02T03:51:28;-2.64;62.40
72602;DHT22;60644;55.858;37.390;2023-03-02T03:54:02;-2.71;62.70
72602;DHT22;60644;55.858;37.390;2023-03-02T03:56:38;-2.69;63.07
72602;DHT22;60644;55.858;37.390;2023-03-02T03:59:05;-2.69;63.03
72602;DHT22;60644;55.858;37.390;2023-03-02T04:01:38;-2.64;62.85
72602;DHT22;60644;55.858;37.390;2023-03-02T04:04:10;-2.66;62.94
72602;DHT22;60644;55.858;37.390;2023-03-02T04:06:37;-2.72;63.04
72602;DHT22;60644;55.858;37.390;2023-03-02T04:09:04;-2.74;63.20
72602;DHT22;60644;55.858;37.390;2023-03-02T04:11:38;-2.71;63.06
72602;DHT22;60644;55.858;37.390;2023-03-02T04:14:06;-2.74;62.51
72602;DHT22;60644;55.858;37.390;2023-03-02T04:16:32;-2.68;62.51
72602;DHT22;60644;55.858;37.390;2023-03-02T04:19:00;-2.69;62.01
72602;DHT22;60644;55.858;37.390;2023-03-02T04:21:27;-2.69;62.17
72602;DHT22;60644;55.858;37.390;2023-03-02T04:23:53;-2.65;62.31
72602;DHT22;60644;55.858;37.390;2023-03-02T04:26:21;-2.61;62.19
72602;DHT22;60644;55.858;37.390;2023-03-02T04:28:47;-2.61;61.98
72602;DHT22;60644;55.858;37.390;2023-03-02T04:31:16;-2.62;62.18
72602;DHT22;60644;55.858;37.390;2023-03-02T04:33:42;-2.68;62.57
72602;DHT22;60644;55.858;37.390;2023-03-02T04:36:09;-2.76;62.36
72602;DHT22;60644;55.858;37.390;2023-03-02T04:38:35;-2.76;62.52
72602;DHT22;60644;55.858;37.390;2023-03-02T04:41:01;-2.72;62.59
72602;DHT22;60644;55.858;37.390;2023-03-02T04:43:27;-2.76;63.00
72602;DHT22;60644;55.858;37.390;2023-03-02T04:45:53;-2.71;63.11
72602;DHT22;60644;55.858;37.390;2023-03-02T04:48:20;-2.66;63.20
72602;DHT22;60644;55.858;37.390;2023-03-02T04:50:46;-2.64;62.98
72602;DHT22;60644;55.858;37.390;2023-03-02T04:53:12;-2.78;62.84
72602;DHT22;60644;55.858;37.390;2023-03-02T04:55:38;-2.76;62.94
72602;DHT22;60644;55.858;37.390;2023-03-02T04:58:05;-2.72;62.95
72602;DHT22;60644;55.858;37.390;2023-03-02T05:00:31;-2.80;63.56
72602;DHT22;60644;55.858;37.390;2023-03-02T05:02:59;-2.79;64.07
72602;DHT22;60644;55.858;37.390;2023-03-02T05:05:25;-2.75;64.18
72602;DHT22;60644;55.858;37.390;2023-03-02T05:07:52;-2.76;64.43
72602;DHT22;60644;55.858;37.390;2023-03-02T05:10:19;-2.77;64.61
72602;DHT22;60644;55.858;37.390;2023-03-02T05:12:45;-2.77;65.01
72602;DHT22;60644;55.858;37.390;2023-03-02T05:15:43;-2.71;64.82
72602;DHT22;60644;55.858;37.390;2023-03-02T05:18:10;-2.79;65.50
72602;DHT22;60644;55.858;37.390;2023-03-02T05:20:36;-2.74;65.13
72602;DHT22;60644;55.858;37.390;2023-03-02T05:23:05;-2.71;64.95
72602;DHT22;60644;55.858;37.390;2023-03-02T05:25:33;-2.64;65.08
72602;DHT22;60644;55.858;37.390;2023-03-02T05:28:00;-2.56;65.21
72602;DHT22;60644;55.858;37.390;2023-03-02T05:30:27;-2.51;65.03
72602;DHT22;60644;55.858;37.390;2023-03-02T05:32:53;-2.51;65.11
72602;DHT22;60644;55.858;37.390;2023-03-02T05:35:20;-2.58;65.51
72602;DHT22;60644;55.858;37.390;2023-03-02T05:37:46;-2.53;65.21
72602;DHT22;60644;55.858;37.390;2023-03-02T05:40:15;-2.50;65.56
72602;DHT22;60644;55.858;37.390;2023-03-02T05:42:42;-2.47;65.38
72602;DHT22;60644;55.858;37.390;2023-03-02T05:45:13;-2.46;65.23
72602;DHT22;60644;55.858;37.390;2023-03-02T05:47:41;-2.42;65.06
72602;DHT22;60644;55.858;37.390;2023-03-02T05:50:07;-2.37;64.95
72602;DHT22;60644;55.858;37.390;2023-03-02T05:52:33;-2.38;65.04
72602;DHT22;60644;55.858;37.390;2023-03-02T05:54:59;-2.36;65.27
72602;DHT22;60644;55.858;37.390;2023-03-02T05:57:25;-2.33;65.26
72602;DHT22;60644;55.858;37.390;2023-03-02T05:59:50;-2.33;65.32
72602;DHT22;60644;55.858;37.390;2023-03-02T06:02:16;-2.23;65.07
72602;DHT22;60644;55.858;37.390;2023-03-02T06:04:42;-2.24;64.62
72602;DHT22;60644;55.858;37.390;2023-03-02T06:07:09;-2.17;64.66
72602;DHT22;60644;55.858;37.390;2023-03-02T06:09:37;-2.07;64.34
72602;DHT22;60644;55.858;37.390;2023-03-02T06:12:03;-2.01;64.16
72602;DHT22;60644;55.858;37.390;2023-03-02T06:14:29;-1.92;64.01
72602;DHT22;60644;55.858;37.390;2023-03-02T06:16:55;-1.97;63.54
72602;DHT22;60644;55.858;37.390;2023-03-02T06:19:21;-1.92;63.77
72602;DHT22;60644;55.858;37.390;2023-03-02T06:21:47;-1.88;63.56
72602;DHT22;60644;55.858;37.390;2023-03-02T06:24:13;-1.76;63.38
72602;DHT22;60644;55.858;37.390;2023-03-02T06:26:38;-1.73;62.90
72602;DHT22;60644;55.858;37.390;2023-03-02T06:29:04;-1.91;62.78
72602;DHT22;60644;55.858;37.390;2023-03-02T06:31:31;-1.92;62.77
72602;DHT22;60644;55.858;37.390;2023-03-02T06:33:56;-1.88;62.53
72602;DHT22;60644;55.858;37.390;2023-03-02T06:36:22;-1.88;62.46
72602;DHT22;60644;55.858;37.390;2023-03-02T06:38:48;-1.94;62.21
72602;DHT22;60644;55.858;37.390;2023-03-02T06:41:15;-1.89;62.49
72602;DHT22;60644;55.858;37.390;2023-03-02T06:43:41;-1.87;61.67
72602;DHT22;60644;55.858;37.390;2023-03-02T06:46:07;-1.85;61.86
72602;DHT22;60644;55.858;37.390;2023-03-02T06:48:32;-1.85;61.43
72602;DHT22;60644;55.858;37.390;2023-03-02T06:50:58;-1.83;61.54
72602;DHT22;60644;55.858;37.390;2023-03-02T06:53:25;-1.82;61.54
72602;DHT22;60644;55.858;37.390;2023-03-02T06:55:51;-1.71;61.48
72602;DHT22;60644;55.858;37.390;2023-03-02T06:58:16;-1.68;61.73
72602;DHT22;60644;55.858;37.390;2023-03-02T07:00:42;-1.55;61.54
72602;DHT22;60644;55.858;37.390;2023-03-02T07:03:08;-1.46;61.00
72602;DHT22;60644;55.858;37.390;2023-03-02T07:05:34;-1.38;60.70
72602;DHT22;60644;55.858;37.390;2023-03-02T07:08:02;-1.31;60.65
72602;DHT22;60644;55.858;37.390;2023-03-02T07:10:28;-1.26;60.20
72602;DHT22;60644;55.858;37.390;2023-03-02T07:12:54;-1.20;60.04
72602;DHT22;60644;55.858;37.390;2023-03-02T07:15:20;-1.13;60.06
72602;DHT22;60644;55.858;37.390;2023-03-02T07:17:46;-1.18;58.83
72602;DHT22;60644;55.858;37.390;2023-03-02T07:20:15;-1.28;59.18
72602;DHT22;60644;55.858;37.390;2023-03-02T07:22:42;-1.28;59.38
72602;DHT22;60644;55.858;37.390;2023-03-02T07:25:09;-1.34;59.08
72602;DHT22;60644;55.858;37.390;2023-03-02T07:27:36;-1.44;57.95
72602;DHT22;60644;55.858;37.390;2023-03-02T07:30:03;-1.45;58.83
72602;DHT22;60644;55.858;37.390;2023-03-02T07:32:30;-1.31;59.86
72602;DHT22;60644;55.858;37.390;2023-03-02T07:34:56;-1.35;58.27
72602;DHT22;60644;55.858;37.390;2023-03-02T07:37:22;-1.26;58.83
72602;DHT22;60644;55.858;37.390;2023-03-02T07:39:48;-1.21;58.81
72602;DHT22;60644;55.858;37.390;2023-03-02T07:42:15;-1.15;58.31
72602;DHT22;60644;55.858;37.390;2023-03-02T07:44:44;-1.08;58.76
72602;DHT22;60644;55.858;37.390;2023-03-02T07:47:10;-1.14;58.88
72602;DHT22;60644;55.858;37.390;2023-03-02T07:49:36;-1.04;58.61
72602;DHT22;60644;55.858;37.390;2023-03-02T07:52:03;-1.03;58.30
72602;DHT22;60644;55.858;37.390;2023-03-02T07:54:29;-1.13;57.10
72602;DHT22;60644;55.858;37.390;2023-03-02T07:56:58;-1.03;57.76
72602;DHT22;60644;55.858;37.390;2023-03-02T07:59:25;-0.96;57.43
72602;DHT22;60644;55.858;37.390;2023-03-02T08:01:52;-0.87;58.26
72602;DHT22;60644;55.858;37.390;2023-03-02T08:04:18;-0.86;56.84
72602;DHT22;60644;55.858;37.390;2023-03-02T08:06:44;-0.80;57.32
72602;DHT22;60644;55.858;37.390;2023-03-02T08:09:10;-0.67;57.72
72602;DHT22;60644;55.858;37.390;2023-03-02T08:11:36;-0.65;55.56
72602;DHT22;60644;55.858;37.390;2023-03-02T08:14:02;-0.65;56.67
72602;DHT22;60644;55.858;37.390;2023-03-02T08:16:28;-0.56;57.55
72602;DHT22;60644;55.858;37.390;2023-03-02T08:18:54;-0.52;56.77
72602;DHT22;60644;55.858;37.390;2023-03-02T08:21:22;-0.51;56.11
72602;DHT22;60644;55.858;37.390;2023-03-02T08:23:49;-0.47;56.67
72602;DHT22;60644;55.858;37.390;2023-03-02T08:26:16;-0.56;55.73
72602;DHT22;60644;55.858;37.390;2023-03-02T08:28:42;-0.69;55.32
72602;DHT22;60644;55.858;37.390;2023-03-02T08:31:08;-0.70;56.11
72602;DHT22;60644;55.858;37.390;2023-03-02T08:33:35;-0.67;56.18
72602;DHT22;60644;55.858;37.390;2023-03-02T08:36:05;-0.66;54.21
72602;DHT22;60644;55.858;37.390;2023-03-02T08:38:32;-0.62;56.05
72602;DHT22;60644;55.858;37.390;2023-03-02T08:41:05;-0.59;55.10
72602;DHT22;60644;55.858;37.390;2023-03-02T08:43:33;-0.64;54.30
72602;DHT22;60644;55.858;37.390;2023-03-02T08:45:59;-0.69;54.47
72602;DHT22;60644;55.858;37.390;2023-03-02T08:48:26;-0.87;52.24
72602;DHT22;60644;55.858;37.390;2023-03-02T08:51:06;-0.90;54.35
72602;DHT22;60644;55.858;37.390;2023-03-02T08:53:37;-0.97;52.05
72602;DHT22;60644;55.858;37.390;2023-03-02T08:56:03;-1.18;52.09
72602;DHT22;60644;55.858;37.390;2023-03-02T08:58:32;-1.21;53.71
72602;DHT22;60644;55.858;37.390;2023-03-02T09:00:57;-1.08;53.40
72602;DHT22;60644;55.858;37.390;2023-03-02T09:03:23;-0.97;53.04
72602;DHT22;60644;55.858;37.390;2023-03-02T09:05:49;-0.83;52.44
72602;DHT22;60644;55.858;37.390;2023-03-02T09:08:15;-0.73;54.03
72602;DHT22;60644;55.858;37.390;2023-03-02T09:10:41;-0.61;53.50
72602;DHT22;60644;55.858;37.390;2023-03-02T09:13:07;-0.50;53.38
72602;DHT22;60644;55.858;37.390;2023-03-02T09:15:33;-0.42;53.27
72602;DHT22;60644;55.858;37.390;2023-03-02T09:17:59;-0.45;51.03
72602;DHT22;60644;55.858;37.390;2023-03-02T09:20:25;-0.47;53.71
72602;DHT22;60644;55.858;37.390;2023-03-02T09:22:51;-0.37;52.62
72602;DHT22;60644;55.858;37.390;2023-03-02T09:25:17;-0.32;52.46
72602;DHT22;60644;55.858;37.390;2023-03-02T09:27:44;-0.31;53.21
72602;DHT22;60644;55.858;37.390;2023-03-02T09:30:11;-0.42;51.19
72602;DHT22;60644;55.858;37.390;2023-03-02T09:32:38;-0.27;53.46
72602;DHT22;60644;55.858;37.390;2023-03-02T09:35:05;-0.31;51.82
72602;DHT22;60644;55.858;37.390;2023-03-02T09:37:31;-0.26;51.63
72602;DHT22;60644;55.858;37.390;2023-03-02T09:39:57;-0.13;53.51
72602;DHT22;60644;55.858;37.390;2023-03-02T09:53:56;-0.05;53.17
72602;DHT22;60644;55.858;37.390;2023-03-02T09:56:25;-0.08;52.44
72602;DHT22;60644;55.858;37.390;2023-03-02T09:59:05;-0.06;51.07
72602;DHT22;60644;55.858;37.390;2023-03-02T10:01:39;-0.06;50.98
72602;DHT22;60644;55.858;37.390;2023-03-02T10:04:19;0.01;51.62
72602;DHT22;60644;55.858;37.390;2023-03-02T10:06:45;-0.03;51.74
72602;DHT22;60644;55.858;37.390;2023-03-02T10:09:12;-0.02;51.79
72602;DHT22;60644;55.858;37.390;2023-03-02T10:11:57;0.12;52.86
72602;DHT22;60644;55.858;37.390;2023-03-02T10:14:40;0.10;51.02
72602;DHT22;60644;55.858;37.390;2023-03-02T10:17:31;0.14;53.20
72602;DHT22;60644;55.858;37.390;2023-03-02T10:20:03;0.18;50.96
72602;DHT22;60644;55.858;37.390;2023-03-02T10:22:39;0.17;52.41
72602;DHT22;60644;55.858;37.390;2023-03-02T10:28:25;0.07;51.01
72602;DHT22;60644;55.858;37.390;2023-03-02T10:31:08;0.04;51.56
72602;DHT22;60644;55.858;37.390;2023-03-02T10:33:36;0.06;51.79
72602;DHT22;60644;55.858;37.390;2023-03-02T10:36:06;0.08;51.96
72602;DHT22;60644;55.858;37.390;2023-03-02T10:38:39;0.04;51.72
72602;DHT22;60644;55.858;37.390;2023-03-02T10:41:08;0.03;52.34
72602;DHT22;60644;55.858;37.390;2023-03-02T10:46:10;-0.14;50.05
72602;DHT22;60644;55.858;37.390;2023-03-02T10:51:30;-0.50;51.83
72602;DHT22;60644;55.858;37.390;2023-03-02T10:54:09;-0.49;51.21
72602;DHT22;60644;55.858;37.390;2023-03-02T10:56:36;-0.37;53.91
72602;DHT22;60644;55.858;37.390;2023-03-02T10:59:24;-0.20;53.49
72602;DHT22;60644;55.858;37.390;2023-03-02T11:02:07;-0.15;52.13
72602;DHT22;60644;55.858;37.390;2023-03-02T11:04:35;-0.09;52.72
72602;DHT22;60644;55.858;37.390;2023-03-02T11:07:09;-0.34;51.39
72602;DHT22;60644;55.858;37.390;2023-03-02T11:09:38;-0.21;52.68
72602;DHT22;60644;55.858;37.390;2023-03-02T11:12:04;-0.19;51.38
72602;DHT22;60644;55.858;37.390;2023-03-02T11:14:37;-0.32;51.11
72602;DHT22;60644;55.858;37.390;2023-03-02T11:17:40;-0.23;51.67
72602;DHT22;60644;55.858;37.390;2023-03-02T11:20:15;-0.36;51.98
72602;DHT22;60644;55.858;37.390;2023-03-02T11:25:52;-0.17;52.14
72602;DHT22;60644;55.858;37.390;2023-03-02T11:28:33;-0.03;52.82
72602;DHT22;60644;55.858;37.390;2023-03-02T11:31:05;0.05;51.91
72602;DHT22;60644;55.858;37.390;2023-03-02T11:33:36;0.06;53.80
72602;DHT22;60644;55.858;37.390;2023-03-02T11:36:13;-0.06;50.48
72602;DHT22;60644;55.858;37.390;2023-03-02T11:38:49;0.02;52.41
72602;DHT22;60644;55.858;37.390;2023-03-02T11:41:27;0.01;51.46
72602;DHT22;60644;55.858;37.390;2023-03-02T11:43:57;0.02;51.69
72602;DHT22;60644;55.858;37.390;2023-03-02T11:46:26;0.02;51.91
72602;DHT22;60644;55.858;37.390;2023-03-02T11:49:02;0.05;52.03
72602;DHT22;60644;55.858;37.390;2023-03-02T11:51:35;0.06;51.95
72602;DHT22;60644;55.858;37.390;2023-03-02T11:56:49;-0.58;52.11
72602;DHT22;60644;55.858;37.390;2023-03-02T11:59:18;-0.39;52.88
72602;DHT22;60644;55.858;37.390;2023-03-02T12:01:49;-0.19;53.58
72602;DHT22;60644;55.858;37.390;2023-03-02T12:04:32;-0.06;52.69
72602;DHT22;60644;55.858;37.390;2023-03-02T12:07:15;0.01;52.95
72602;DHT22;60644;55.858;37.390;2023-03-02T12:09:42;-0.10;51.69
72602;DHT22;60644;55.858;37.390;2023-03-02T12:14:58;-0.26;52.67
72602;DHT22;60644;55.858;37.390;2023-03-02T12:20:07;-0.01;52.69
72602;DHT22;60644;55.858;37.390;2023-03-02T12:22:34;0.04;52.66
72602;DHT22;60644;55.858;37.390;2023-03-02T12:25:23;0.16;52.80
72602;DHT22;60644;55.858;37.390;2023-03-02T12:27:52;-0.20;52.55
72602;DHT22;60644;55.858;37.390;2023-03-02T12:30:23;-0.41;52.92
72602;DHT22;60644;55.858;37.390;2023-03-02T12:35:35;-0.01;52.30
72602;DHT22;60644;55.858;37.390;2023-03-02T12:41:20;0.25;51.25
72602;DHT22;60644;55.858;37.390;2023-03-02T12:46:44;0.68;50.55
72602;DHT22;60644;55.858;37.390;2023-03-02T12:49:16;0.68;50.97
72602;DHT22;60644;55.858;37.390;2023-03-02T12:54:20;0.75;50.45
72602;DHT22;60644;55.858;37.390;2023-03-02T12:56:47;0.78;50.46
72602;DHT22;60644;55.858;37.390;2023-03-02T12:59:24;0.68;49.50
72602;DHT22;60644;55.858;37.390;2023-03-02T13:01:50;0.39;50.58
72602;DHT22;60644;55.858;37.390;2023-03-02T13:04:24;0.31;50.92
72602;DHT22;60644;55.858;37.390;2023-03-02T13:06:52;0.25;51.10
72602;DHT22;60644;55.858;37.390;2023-03-02T13:09:19;0.19;51.63
72602;DHT22;60644;55.858;37.390;2023-03-02T13:11:48;0.20;52.07
72602;DHT22;60644;55.858;37.390;2023-03-02T13:14:27;0.12;52.14
72602;DHT22;60644;55.858;37.390;2023-03-02T13:16:58;0.13;52.69
72602;DHT22;60644;55.858;37.390;2023-03-02T13:19:27;0.02;51.88
72602;DHT22;60644;55.858;37.390;2023-03-02T13:21:55;0.04;53.02
72602;DHT22;60644;55.858;37.390;2023-03-02T13:24:28;-0.24;52.98
72602;DHT22;60644;55.858;37.390;2023-03-02T13:27:20;-0.38;53.79
72602;DHT22;60644;55.858;37.390;2023-03-02T13:29:47;-0.41;53.78
72602;DHT22;60644;55.858;37.390;2023-03-02T13:32:33;-0.35;54.07
72602;DHT22;60644;55.858;37.390;2023-03-02T13:34:59;-0.41;53.86
72602;DHT22;60644;55.858;37.390;2023-03-02T13:37:38;-0.44;54.05
72602;DHT22;60644;55.858;37.390;2023-03-02T13:42:47;-0.37;54.54
72602;DHT22;60644;55.858;37.390;2023-03-02T13:45:26;-0.44;53.52
72602;DHT22;60644;55.858;37.390;2023-03-02T13:47:52;-0.40;53.76
72602;DHT22;60644;55.858;37.390;2023-03-02T13:50:21;-0.51;54.15
72602;DHT22;60644;55.858;37.390;2023-03-02T13:52:48;-0.45;54.30
72602;DHT22;60644;55.858;37.390;2023-03-02T13:55:19;-0.50;54.30
72602;DHT22;60644;55.858;37.390;2023-03-02T13:57:47;-0.45;54.35
72602;DHT22;60644;55.858;37.390;2023-03-02T14:00:22;-0.47;53.64
72602;DHT22;60644;55.858;37.390;2023-03-02T14:02:49;-0.53;54.06
72602;DHT22;60644;55.858;37.390;2023-03-02T14:05:18;-0.53;53.81
72602;DHT22;60644;55.858;37.390;2023-03-02T14:07:44;-0.50;53.95
72602;DHT22;60644;55.858;37.390;2023-03-02T14:10:12;-0.44;53.86
72602;DHT22;60644;55.858;37.390;2023-03-02T14:12:40;-0.55;54.12
72602;DHT22;60644;55.858;37.390;2023-03-02T14:15:09;-0.56;54.52
72602;DHT22;60644;55.858;37.390;2023-03-02T14:17:39;-0.86;55.69
72602;DHT22;60644;55.858;37.390;2023-03-02T14:20:05;-0.87;55.46
72602;DHT22;60644;55.858;37.390;2023-03-02T14:22:31;-0.86;55.42
72602;DHT22;60644;55.858;37.390;2023-03-02T14:24:59;-0.90;55.65
72602;DHT22;60644;55.858;37.390;2023-03-02T14:27:28;-0.73;55.53
72602;DHT22;60644;55.858;37.390;2023-03-02T14:29:54;-0.58;55.54
72602;DHT22;60644;55.858;37.390;2023-03-02T14:32:20;-0.50;54.91
72602;DHT22;60644;55.858;37.390;2023-03-02T14:34:46;-0.50;55.34
72602;DHT22;60644;55.858;37.390;2023-03-02T14:37:17;-0.43;55.47
72602;DHT22;60644;55.858;37.390;2023-03-02T14:39:47;-0.54;55.33
72602;DHT22;60644;55.858;37.390;2023-03-02T14:42:17;-0.59;55.84
72602;DHT22;60644;55.858;37.390;2023-03-02T14:44:47;-0.70;56.32
72602;DHT22;60644;55.858;37.390;2023-03-02T14:47:14;-0.76;56.41
72602;DHT22;60644;55.858;37.390;2023-03-02T14:49:42;-0.97;57.61
72602;DHT22;60644;55.858;37.390;2023-03-02T14:52:20;-0.95;57.85
72602;DHT22;60644;55.858;37.390;2023-03-02T14:54:55;-0.91;58.26
72602;DHT22;60644;55.858;37.390;2023-03-02T14:57:24;-0.96;59.08
72602;DHT22;60644;55.858;37.390;2023-03-02T14:59:52;-0.91;59.12
72602;DHT22;60644;55.858;37.390;2023-03-02T15:02:19;-0.86;59.31
72602;DHT22;60644;55.858;37.390;2023-03-02T15:04:46;-0.98;60.36
72602;DHT22;60644;55.858;37.390;2023-03-02T15:07:13;-0.91;60.02
72602;DHT22;60644;55.858;37.390;2023-03-02T15:09:41;-0.94;60.47
72602;DHT22;60644;55.858;37.390;2023-03-02T15:12:08;-0.84;59.91
72602;DHT22;60644;55.858;37.390;2023-03-02T15:14:34;-0.81;60.11
72602;DHT22;60644;55.858;37.390;2023-03-02T15:17:00;-0.99;61.24
72602;DHT22;60644;55.858;37.390;2023-03-02T15:19:27;-0.95;60.74
72602;DHT22;60644;55.858;37.390;2023-03-02T15:21:53;-1.04;61.33
72602;DHT22;60644;55.858;37.390;2023-03-02T15:24:19;-0.97;61.03
72602;DHT22;60644;55.858;37.390;2023-03-02T15:26:49;-0.95;61.34
72602;DHT22;60644;55.858;37.390;2023-03-02T15:29:16;-0.91;61.25
72602;DHT22;60644;55.858;37.390;2023-03-02T15:31:42;-0.88;61.28
72602;DHT22;60644;55.858;37.390;2023-03-02T15:34:08;-0.87;61.28
72602;DHT22;60644;55.858;37.390;2023-03-02T15:36:34;-0.76;60.58
72602;DHT22;60644;55.858;37.390;2023-03-02T15:39:00;-0.74;60.98
72602;DHT22;60644;55.858;37.390;2023-03-02T15:41:26;-0.67;60.54
72602;DHT22;60644;55.858;37.390;2023-03-02T15:43:52;-0.62;60.45
72602;DHT22;60644;55.858;37.390;2023-03-02T15:46:21;-0.58;60.54
72602;DHT22;60644;55.858;37.390;2023-03-02T15:48:48;-0.80;61.74
72602;DHT22;60644;55.858;37.390;2023-03-02T15:51:16;-0.81;61.78
72602;DHT22;60644;55.858;37.390;2023-03-02T15:53:43;-0.79;61.72
72602;DHT22;60644;55.858;37.390;2023-03-02T15:56:13;-0.83;62.21
72602;DHT22;60644;55.858;37.390;2023-03-02T15:58:47;-0.73;61.83
72602;DHT22;60644;55.858;37.390;2023-03-02T16:01:14;-0.66;61.44
72602;DHT22;60644;55.858;37.390;2023-03-02T16:03:41;-0.58;61.33
72602;DHT22;60644;55.858;37.390;2023-03-02T16:06:07;-0.72;62.90
72602;DHT22;60644;55.858;37.390;2023-03-02T16:08:34;-0.74;63.24
72602;DHT22;60644;55.858;37.390;2023-03-02T16:11:03;-0.71;62.70
72602;DHT22;60644;55.858;37.390;2023-03-02T16:13:29;-0.68;63.53
72602;DHT22;60644;55.858;37.390;2023-03-02T16:15:56;-0.79;63.78
72602;DHT22;60644;55.858;37.390;2023-03-02T16:18:22;-0.69;63.05
72602;DHT22;60644;55.858;37.390;2023-03-02T16:20:48;-0.65;64.15